Shenandoah Caverns, Virginia
Current Conditions -  °F | °C
As of 5:15 AM on Sunday 25 Jan 2015 (Local Time) from K8W2 Reporting Station
Overcast Overcast  
Wind Chill: 36°   Ceiling: 3600
Heat Index: 36°   Visibility: 10mi
Dew Point: 27°   Wind: 3mph
Humidity: 69%   Direction: 250°WSW
Pressure: 29.77"   Gusts: NA
Location:  38.7189°N, 78.7118°W
Report Text: K8W2 251015Z AUTO 25003KT 10SM OVC036 02/M03 A2977 RMK AO1 T00241028
Loading
Personal Weather Stations






























Interactive Weather Map New forecast layout! Learn more

10-Day Weather Forecast

Advertisements
Track Severe Weather on mobile